createdAt,value
2023-03-04T00:02:14.379Z,1.40
2023-03-04T00:04:41.159Z,1.40
2023-03-04T00:07:07.897Z,1.40
2023-03-04T00:09:34.610Z,1.40
2023-03-04T00:12:01.445Z,1.30
2023-03-04T00:14:30.331Z,1.40
2023-03-04T00:16:57.255Z,1.30
2023-03-04T00:19:24.048Z,1.40
2023-03-04T00:21:50.828Z,1.40
2023-03-04T00:24:17.596Z,1.30
2023-03-04T00:26:44.381Z,1.30
2023-03-04T00:29:11.105Z,1.30
2023-03-04T00:31:38.046Z,1.30
2023-03-04T00:34:04.812Z,1.30
2023-03-04T00:36:31.557Z,1.20
2023-03-04T00:38:58.324Z,1.20
2023-03-04T00:41:25.379Z,1.10
2023-03-04T00:43:52.232Z,1.20
2023-03-04T00:46:19.007Z,1.10
2023-03-04T00:48:45.775Z,1.20
2023-03-04T00:51:12.508Z,1.10
2023-03-04T00:53:39.260Z,1.00
2023-03-04T00:56:06.574Z,0.90
2023-03-04T00:58:33.470Z,0.90
2023-03-04T01:01:00.246Z,0.90
2023-03-04T01:03:29.673Z,0.90
2023-03-04T01:05:56.410Z,0.80
2023-03-04T01:08:23.153Z,0.80
2023-03-04T01:10:49.906Z,0.80
2023-03-04T01:13:16.920Z,0.70
2023-03-04T01:15:43.800Z,0.70
2023-03-04T01:18:10.927Z,0.70
2023-03-04T01:20:37.656Z,0.60
2023-03-04T01:23:04.436Z,0.70
2023-03-04T01:25:31.552Z,0.70
2023-03-04T01:27:58.963Z,0.70
2023-03-04T01:30:25.885Z,0.70
2023-03-04T01:32:52.592Z,0.70
2023-03-04T01:35:19.338Z,0.60
2023-03-04T01:37:46.105Z,0.60
2023-03-04T01:40:13.817Z,0.60
2023-03-04T01:42:41.361Z,0.60
2023-03-04T01:45:11.633Z,0.50
2023-03-04T01:47:38.468Z,0.60
2023-03-04T01:50:15.957Z,0.60
2023-03-04T01:52:43.058Z,0.50
2023-03-04T01:55:21.381Z,0.50
2023-03-04T01:57:50.302Z,0.50
2023-03-04T02:00:33.087Z,0.40
2023-03-04T02:03:04.189Z,0.40
2023-03-04T02:05:31.624Z,0.50
2023-03-04T02:07:59.665Z,0.50
2023-03-04T02:10:26.749Z,0.40
2023-03-04T02:12:53.902Z,0.50
2023-03-04T02:15:21.314Z,0.50
2023-03-04T02:17:48.277Z,0.50
2023-03-04T02:20:31.700Z,0.50
2023-03-04T02:23:17.613Z,0.50
2023-03-04T02:26:14.836Z,0.50
2023-03-04T02:28:43.202Z,0.50
2023-03-04T02:31:35.144Z,0.50
2023-03-04T02:34:09.754Z,0.50
2023-03-04T02:36:37.276Z,0.50
2023-03-04T02:39:25.809Z,0.50
2023-03-04T02:41:54.332Z,0.50
2023-03-04T02:44:26.320Z,0.40
2023-03-04T02:46:54.152Z,0.40
2023-03-04T02:49:23.138Z,0.40
2023-03-04T02:51:58.429Z,0.30
2023-03-04T02:54:25.301Z,0.40
2023-03-04T02:56:56.967Z,0.30
2023-03-04T02:59:24.549Z,0.30
2023-03-04T03:01:52.198Z,0.30
2023-03-04T03:04:21.243Z,0.30
2023-03-04T03:06:49.442Z,0.30
2023-03-04T03:09:16.589Z,0.20
2023-03-04T03:11:43.505Z,0.20
2023-03-04T03:14:10.838Z,0.20
2023-03-04T03:16:38.127Z,0.20
2023-03-04T03:19:05.373Z,0.10
2023-03-04T03:21:34.203Z,0.10
2023-03-04T03:24:01.026Z,0.10
2023-03-04T03:26:29.034Z,0.00
2023-03-04T03:28:55.796Z,0.00
2023-03-04T03:31:22.623Z,0.00
2023-03-04T03:33:49.484Z,0.00
2023-03-04T03:36:16.308Z,0.00
2023-03-04T03:38:43.191Z,0.00
2023-03-04T03:41:09.977Z,-0.10
2023-03-04T03:43:36.863Z,0.00
2023-03-04T03:46:03.728Z,-0.10
2023-03-04T03:48:30.521Z,-0.10
2023-03-04T03:50:57.243Z,-0.10
2023-03-04T03:53:23.952Z,0.00
2023-03-04T03:55:50.700Z,-0.10
2023-03-04T03:58:17.497Z,-0.10
2023-03-04T04:00:44.300Z,-0.20
2023-03-04T04:03:15.010Z,-0.20
2023-03-04T04:05:41.771Z,-0.20
2023-03-04T04:08:14.682Z,-0.20
2023-03-04T04:10:42.091Z,-0.20
2023-03-04T04:13:09.591Z,-0.30
2023-03-04T04:15:38.627Z,-0.30
2023-03-04T04:18:06.281Z,-0.40
2023-03-04T04:20:33.315Z,-0.40
2023-03-04T04:23:00.125Z,-0.40
2023-03-04T04:25:27.101Z,-0.40
2023-03-04T04:27:53.823Z,-0.40
2023-03-04T04:30:20.809Z,-0.40
2023-03-04T04:32:47.607Z,-0.40
2023-03-04T04:35:14.392Z,-0.50
2023-03-04T04:37:41.121Z,-0.50
2023-03-04T04:40:08.800Z,-0.50
2023-03-04T04:42:35.806Z,-0.50
2023-03-04T04:45:02.716Z,-0.60
2023-03-04T04:47:29.527Z,-0.60
2023-03-04T04:49:56.316Z,-0.60
2023-03-04T04:52:23.037Z,-0.60
2023-03-04T04:54:49.800Z,-0.70
2023-03-04T04:57:16.566Z,-0.70
2023-03-04T04:59:43.302Z,-0.70
2023-03-04T05:02:10.013Z,-0.70
2023-03-04T05:04:36.727Z,-0.80
2023-03-04T05:07:03.550Z,-0.80
2023-03-04T05:09:30.246Z,-0.80
2023-03-04T05:11:56.977Z,-0.90
2023-03-04T05:14:23.725Z,-0.90
2023-03-04T05:16:52.885Z,-0.90
2023-03-04T05:19:20.705Z,-0.90
2023-03-04T05:21:47.575Z,-0.90
2023-03-04T05:24:14.329Z,-0.90
2023-03-04T05:26:41.407Z,-0.90
2023-03-04T05:29:08.230Z,-0.90
2023-03-04T05:31:35.012Z,-0.90
2023-03-04T05:34:01.870Z,-0.90
2023-03-04T05:36:28.689Z,-1.00
2023-03-04T05:38:55.460Z,-0.90
2023-03-04T05:41:22.891Z,-1.00
2023-03-04T05:43:50.265Z,-1.00
2023-03-04T05:46:19.179Z,-1.00
2023-03-04T05:48:46.225Z,-1.00
2023-03-04T05:51:13.053Z,-1.00
2023-03-04T05:53:41.431Z,-1.00
2023-03-04T05:56:10.692Z,-1.00
2023-03-04T05:58:37.888Z,-1.00
2023-03-04T06:01:05.319Z,-0.90
2023-03-04T06:03:32.276Z,-0.90
2023-03-04T06:05:59.322Z,-0.90
2023-03-04T06:08:27.744Z,-1.00
2023-03-04T06:10:56.268Z,-0.90
2023-03-04T06:13:23.398Z,-0.90
2023-03-04T06:15:55.922Z,-0.90
2023-03-04T06:18:23.612Z,-0.90
2023-03-04T06:20:50.523Z,-0.90
2023-03-04T06:23:17.546Z,-0.80
2023-03-04T06:25:44.260Z,-0.80
2023-03-04T06:28:11.022Z,-0.70
2023-03-04T06:30:37.746Z,-0.60
2023-03-04T06:33:04.494Z,-0.60
2023-03-04T06:35:31.249Z,-0.70
2023-03-04T06:37:58.051Z,-0.70
2023-03-04T06:40:24.791Z,-0.70
2023-03-04T06:42:51.584Z,-0.60
2023-03-04T06:45:18.372Z,-0.60
2023-03-04T06:47:45.147Z,-0.60
2023-03-04T06:50:13.087Z,-0.60
2023-03-04T06:52:40.665Z,-0.60
2023-03-04T06:55:08.643Z,-0.50
2023-03-04T06:57:35.528Z,-0.50
2023-03-04T07:00:03.432Z,-0.50
2023-03-04T07:02:30.213Z,-0.40
2023-03-04T07:04:57.021Z,-0.40
2023-03-04T07:07:25.550Z,-0.40
2023-03-04T07:09:52.305Z,-0.40
2023-03-04T07:12:19.107Z,-0.60
2023-03-04T07:14:45.855Z,-0.60
2023-03-04T07:17:12.616Z,-0.50
2023-03-04T07:19:39.422Z,-0.50
2023-03-04T07:22:06.179Z,-0.60
2023-03-04T07:24:32.919Z,-0.60
2023-03-04T07:26:59.746Z,-0.70
2023-03-04T07:29:26.529Z,-0.70
2023-03-04T07:31:53.902Z,-0.70
2023-03-04T07:34:20.739Z,-0.60
2023-03-04T07:36:47.464Z,-0.60
2023-03-04T07:39:14.579Z,-0.60
2023-03-04T07:41:41.896Z,-0.60
2023-03-04T07:44:13.189Z,-0.70
2023-03-04T07:46:40.328Z,-0.60
2023-03-04T07:49:07.184Z,-0.50
2023-03-04T07:51:34.966Z,-0.70
2023-03-04T07:54:02.050Z,-0.70
2023-03-04T07:56:31.867Z,-0.80
2023-03-04T07:58:58.616Z,-0.70
2023-03-04T08:01:29.107Z,-0.70
2023-03-04T08:03:56.086Z,-0.70
2023-03-04T08:06:23.813Z,-0.60
2023-03-04T08:08:57.115Z,-0.70
2023-03-04T08:11:24.333Z,-0.70
2023-03-04T08:13:54.009Z,-0.60
2023-03-04T08:16:22.944Z,-0.50
2023-03-04T08:18:52.597Z,-0.50
2023-03-04T08:21:21.266Z,-0.60
2023-03-04T08:23:49.083Z,-0.60
2023-03-04T08:26:25.915Z,-0.60
2023-03-04T08:28:54.276Z,-0.50
2023-03-04T08:31:21.514Z,-0.60
2023-03-04T08:33:48.679Z,-0.50
2023-03-04T08:36:16.079Z,-0.50
2023-03-04T08:38:42.983Z,-0.50
2023-03-04T08:41:10.454Z,-0.40
2023-03-04T08:43:37.369Z,-0.50
2023-03-04T08:46:04.823Z,-0.60
2023-03-04T08:48:31.621Z,-0.60
2023-03-04T08:50:58.725Z,-0.50
2023-03-04T08:53:25.561Z,-0.50
2023-03-04T08:55:53.245Z,-0.50
2023-03-04T08:58:20.276Z,-0.60
2023-03-04T09:00:48.961Z,-0.50
2023-03-04T09:03:17.021Z,-0.50
2023-03-04T09:05:45.421Z,-0.60
2023-03-04T09:08:13.130Z,-0.60
2023-03-04T09:10:40.054Z,-0.60
2023-03-04T09:13:06.956Z,-0.50
2023-03-04T09:15:37.257Z,-0.40
2023-03-04T09:18:05.375Z,-0.40
2023-03-04T09:20:32.718Z,-0.50
2023-03-04T09:22:59.523Z,-0.50
2023-03-04T09:25:26.274Z,-0.40
2023-03-04T09:27:53.099Z,-0.40
2023-03-04T09:30:20.245Z,-0.40
2023-03-04T09:32:47.265Z,-0.30
2023-03-04T09:35:14.087Z,-0.40
2023-03-04T09:37:41.753Z,-0.40
2023-03-04T09:40:16.033Z,-0.30
2023-03-04T09:42:58.037Z,-0.30
2023-03-04T09:45:39.670Z,-0.30
2023-03-04T09:48:09.214Z,-0.30
2023-03-04T09:50:41.472Z,-0.30
2023-03-04T09:53:10.909Z,-0.40
2023-03-04T09:55:40.353Z,-0.40
2023-03-04T09:58:36.206Z,-0.30
2023-03-04T10:01:20.070Z,-0.30
2023-03-04T10:03:52.042Z,-0.20
2023-03-04T10:06:21.263Z,-0.10
2023-03-04T10:08:56.251Z,-0.20
2023-03-04T10:11:39.972Z,-0.10
2023-03-04T10:14:21.784Z,-0.20
2023-03-04T10:17:13.709Z,-0.20
2023-03-04T10:19:52.369Z,-0.10
2023-03-04T10:22:20.516Z,-0.10
2023-03-04T10:24:47.841Z,-0.10
2023-03-04T10:27:18.765Z,-0.20
2023-03-04T10:29:48.662Z,-0.10
2023-03-04T10:32:19.303Z,-0.20
2023-03-04T10:34:46.280Z,-0.10
2023-03-04T10:37:13.193Z,-0.10
2023-03-04T10:39:43.016Z,-0.10
2023-03-04T10:42:15.980Z,-0.10
2023-03-04T10:44:51.922Z,-0.10
2023-03-04T10:47:18.824Z,-0.10
2023-03-04T10:49:59.973Z,-0.10
2023-03-04T10:52:41.243Z,-0.10
2023-03-04T10:55:17.595Z,-0.10
2023-03-04T10:57:49.653Z,-0.20
2023-03-04T11:00:35.392Z,-0.20
2023-03-04T11:03:29.924Z,-0.10
2023-03-04T11:06:17.616Z,-0.10
2023-03-04T11:08:44.953Z,0.00
2023-03-04T11:11:42.853Z,-0.10
2023-03-04T11:14:22.972Z,-0.10
2023-03-04T11:16:58.154Z,-0.10
2023-03-04T11:19:31.623Z,0.00
2023-03-04T11:21:59.991Z,0.10
2023-03-04T11:24:30.726Z,0.10
2023-03-04T11:27:12.389Z,0.10
2023-03-04T11:30:04.090Z,0.20
2023-03-04T11:32:40.716Z,0.30
2023-03-04T11:35:34.771Z,0.30
2023-03-04T11:38:08.087Z,0.20
2023-03-04T11:40:49.065Z,0.20
2023-03-04T11:43:37.895Z,0.10
2023-03-04T11:46:36.618Z,0.20
2023-03-04T11:49:41.061Z,0.30
2023-03-04T11:52:26.261Z,0.20
2023-03-04T11:55:08.302Z,0.20
2023-03-04T11:58:19.058Z,0.20
2023-03-04T12:00:54.687Z,0.20
2023-03-04T12:03:30.320Z,0.10
2023-03-04T12:06:17.188Z,0.10
2023-03-04T12:09:11.619Z,0.10
2023-03-04T12:11:58.685Z,0.10
2023-03-04T12:14:34.705Z,0.20
2023-03-04T12:17:28.342Z,0.30
2023-03-04T12:20:14.376Z,0.20
2023-03-04T12:22:51.624Z,0.20
2023-03-04T12:25:37.301Z,0.20
2023-03-04T12:28:22.225Z,0.30
2023-03-04T12:31:18.907Z,0.30
2023-03-04T12:34:11.092Z,0.40
2023-03-04T12:36:42.743Z,0.30
2023-03-04T12:39:28.108Z,0.30
2023-03-04T12:42:28.957Z,0.20
2023-03-04T12:45:20.319Z,0.20
2023-03-04T12:48:19.923Z,0.30
2023-03-04T12:51:05.207Z,0.30
2023-03-04T12:53:41.700Z,0.20
2023-03-04T12:56:25.073Z,0.20
2023-03-04T12:58:52.981Z,0.30
2023-03-04T13:01:27.396Z,0.30
2023-03-04T13:03:58.282Z,0.30
2023-03-04T13:06:25.028Z,0.30
2023-03-04T13:08:52.293Z,0.30
2023-03-04T13:11:28.365Z,0.30
2023-03-04T13:14:07.208Z,0.40
2023-03-04T13:16:39.219Z,0.40
2023-03-04T13:19:47.180Z,0.50
2023-03-04T13:22:32.214Z,0.40
2023-03-04T13:25:02.276Z,0.40
2023-03-04T13:27:50.430Z,0.30
2023-03-04T13:30:32.512Z,0.40
2023-03-04T13:33:13.400Z,0.40
2023-03-04T13:35:49.257Z,0.50
2023-03-04T13:38:31.137Z,0.50
2023-03-04T13:41:15.702Z,0.50
2023-03-04T13:44:33.222Z,0.50
2023-03-04T13:47:18.744Z,0.40
2023-03-04T13:49:45.608Z,0.40
2023-03-04T13:52:38.972Z,0.40
2023-03-04T13:55:45.722Z,0.40
2023-03-04T13:58:22.888Z,0.40
2023-03-04T14:00:53.017Z,0.30
2023-03-04T14:03:23.373Z,0.30
2023-03-04T14:06:20.733Z,0.30
2023-03-04T14:08:48.873Z,0.40
2023-03-04T14:11:38.540Z,0.40
2023-03-04T14:14:10.424Z,0.50
2023-03-04T14:16:40.990Z,0.50
2023-03-04T14:19:16.638Z,0.50
2023-03-04T14:21:47.165Z,0.50
2023-03-04T14:24:17.097Z,0.40
2023-03-04T14:26:43.961Z,0.40
2023-03-04T14:29:26.342Z,0.30
2023-03-04T14:31:54.547Z,0.30
2023-03-04T14:34:29.915Z,0.40
2023-03-04T14:36:56.914Z,0.40
2023-03-04T14:39:27.206Z,0.40
2023-03-04T14:41:57.610Z,0.50
2023-03-04T14:44:48.507Z,0.40
2023-03-04T14:47:36.192Z,0.40
2023-03-04T14:50:06.363Z,0.40
2023-03-04T14:52:33.072Z,0.50
2023-03-04T14:55:15.140Z,0.50
2023-03-04T14:57:43.842Z,0.40
2023-03-04T15:00:22.781Z,0.40
2023-03-04T15:02:56.737Z,0.40
2023-03-04T15:05:32.217Z,0.40
2023-03-04T15:08:02.536Z,0.40
2023-03-04T15:10:35.713Z,0.40
2023-03-04T15:13:06.124Z,0.30
2023-03-04T15:15:47.199Z,0.30
2023-03-04T15:18:26.408Z,0.30
2023-03-04T15:20:58.929Z,0.30
2023-03-04T15:23:27.616Z,0.20
2023-03-04T15:25:57.560Z,0.30
2023-03-04T15:28:25.533Z,0.30
2023-03-04T15:30:52.869Z,0.30
2023-03-04T15:33:21.247Z,0.40
2023-03-04T15:36:00.552Z,0.30
2023-03-04T15:38:28.618Z,0.20
2023-03-04T15:40:58.262Z,0.20
2023-03-04T15:43:25.419Z,0.30
2023-03-04T15:45:53.587Z,0.40
2023-03-04T15:48:21.014Z,0.40
2023-03-04T15:51:00.561Z,0.40
2023-03-04T15:53:42.246Z,0.30
2023-03-04T15:56:14.240Z,0.30
2023-03-04T15:58:41.197Z,0.30
2023-03-04T16:01:09.469Z,0.40
2023-03-04T16:03:36.194Z,0.40
2023-03-04T16:06:02.948Z,0.40
2023-03-04T16:08:29.719Z,0.40
2023-03-04T16:10:56.614Z,0.50
2023-03-04T16:13:24.177Z,0.40
2023-03-04T16:15:51.702Z,0.40
2023-03-04T16:18:18.792Z,0.30
2023-03-04T16:20:48.721Z,0.40
2023-03-04T16:23:25.176Z,0.40
2023-03-04T16:25:55.618Z,0.40
2023-03-04T16:28:22.758Z,0.40
2023-03-04T16:30:50.222Z,0.30
2023-03-04T16:33:17.224Z,0.30
2023-03-04T16:35:45.334Z,0.20
2023-03-04T16:38:28.088Z,0.30
2023-03-04T16:40:56.722Z,0.30
2023-03-04T16:43:23.568Z,0.30
2023-03-04T16:45:50.405Z,0.30
2023-03-04T16:48:17.340Z,0.30
2023-03-04T16:50:44.585Z,0.40
2023-03-04T16:53:26.698Z,0.30
2023-03-04T16:55:53.755Z,0.40
2023-03-04T16:58:20.637Z,0.30
2023-03-04T17:00:47.456Z,0.20
2023-03-04T17:03:14.206Z,0.10
2023-03-04T17:05:41.016Z,0.20
2023-03-04T17:08:07.722Z,0.20
2023-03-04T17:10:34.770Z,0.20
2023-03-04T17:13:01.558Z,0.20
2023-03-04T17:15:28.271Z,0.20
2023-03-04T17:17:55.005Z,0.30
2023-03-04T17:20:21.844Z,0.30
2023-03-04T17:22:48.641Z,0.20
2023-03-04T17:25:16.027Z,0.20
2023-03-04T17:27:42.900Z,0.20
2023-03-04T17:30:13.024Z,0.30
2023-03-04T17:32:40.507Z,0.30
2023-03-04T17:35:09.144Z,0.20
2023-03-04T17:37:36.586Z,0.20
2023-03-04T17:40:05.902Z,0.20
2023-03-04T17:42:32.754Z,0.30
2023-03-04T17:44:59.462Z,0.20
2023-03-04T17:47:26.276Z,0.20
2023-03-04T17:49:53.142Z,0.20
2023-03-04T17:52:19.956Z,0.20
2023-03-04T17:54:46.782Z,0.40
2023-03-04T17:57:13.986Z,0.30
2023-03-04T17:59:40.855Z,0.20
2023-03-04T18:02:08.002Z,0.30
2023-03-04T18:04:35.372Z,0.20
2023-03-04T18:07:02.078Z,0.20
2023-03-04T18:09:28.872Z,0.20
2023-03-04T18:11:55.838Z,0.20
2023-03-04T18:14:22.550Z,0.20
2023-03-04T18:16:49.372Z,0.20
2023-03-04T18:19:18.596Z,0.10
2023-03-04T18:21:45.537Z,0.10
2023-03-04T18:24:12.664Z,0.10
2023-03-04T18:26:39.466Z,0.10
2023-03-04T18:29:06.280Z,0.10
2023-03-04T18:31:33.169Z,0.10
2023-03-04T18:34:02.699Z,0.10
2023-03-04T18:36:29.752Z,0.10
2023-03-04T18:38:59.203Z,0.20
2023-03-04T18:41:27.712Z,0.30
2023-03-04T18:43:55.135Z,0.20
2023-03-04T18:46:31.729Z,0.20
2023-03-04T18:49:03.980Z,0.20
2023-03-04T18:51:31.109Z,0.20
2023-03-04T18:53:58.380Z,0.10
2023-03-04T18:56:34.488Z,0.10
2023-03-04T18:59:01.276Z,0.30
2023-03-04T19:01:28.071Z,0.30
2023-03-04T19:03:59.088Z,0.40
2023-03-04T19:06:25.974Z,0.30
2023-03-04T19:08:55.243Z,0.20
2023-03-04T19:11:22.977Z,0.20
2023-03-04T19:13:49.705Z,0.20
2023-03-04T19:16:16.564Z,0.20
2023-03-04T19:18:43.381Z,0.20
2023-03-04T19:21:10.124Z,0.20
2023-03-04T19:23:36.847Z,0.20
2023-03-04T19:26:07.187Z,0.20
2023-03-04T19:28:35.167Z,0.20
2023-03-04T19:31:06.714Z,0.30
2023-03-04T19:33:36.463Z,0.50
2023-03-04T19:36:04.657Z,0.60
2023-03-04T19:38:32.398Z,0.40
2023-03-04T19:41:06.978Z,0.30
2023-03-04T19:43:36.934Z,0.20
2023-03-04T19:46:03.798Z,0.10
2023-03-04T19:48:30.580Z,0.10
2023-03-04T19:50:57.324Z,0.20
2023-03-04T19:53:24.240Z,0.10
2023-03-04T19:55:52.461Z,0.10
2023-03-04T19:58:19.793Z,0.30
2023-03-04T20:00:46.883Z,0.20
2023-03-04T20:03:14.076Z,0.30
2023-03-04T20:05:40.912Z,0.20
2023-03-04T20:08:07.741Z,0.20
2023-03-04T20:10:37.038Z,0.10
2023-03-04T20:13:08.527Z,0.20
2023-03-04T20:15:35.504Z,0.20
2023-03-04T20:18:02.389Z,0.30
2023-03-04T20:20:29.552Z,0.20
2023-03-04T20:22:56.782Z,0.20
2023-03-04T20:25:24.057Z,0.30
2023-03-04T20:27:50.879Z,0.30
2023-03-04T20:30:18.116Z,0.30
2023-03-04T20:32:45.335Z,0.30
2023-03-04T20:35:15.037Z,0.40
2023-03-04T20:37:42.509Z,0.40
2023-03-04T20:40:13.283Z,0.30
2023-03-04T20:42:40.353Z,0.30
2023-03-04T20:45:07.901Z,0.20
2023-03-04T20:47:34.868Z,0.10
2023-03-04T20:50:01.669Z,0.10
2023-03-04T20:52:28.445Z,0.10
2023-03-04T20:54:55.176Z,0.10
2023-03-04T20:57:22.186Z,0.30
2023-03-04T20:59:48.933Z,0.20
2023-03-04T21:02:17.214Z,0.20
2023-03-04T21:04:44.023Z,0.10
2023-03-04T21:07:11.414Z,0.20
2023-03-04T21:09:38.129Z,0.20
2023-03-04T21:12:05.225Z,0.30
2023-03-04T21:14:32.636Z,0.40
2023-03-04T21:17:01.796Z,0.40
2023-03-04T21:19:31.427Z,0.50
2023-03-04T21:21:59.666Z,0.30
2023-03-04T21:24:29.687Z,0.20
2023-03-04T21:26:56.996Z,0.20
2023-03-04T21:29:25.571Z,0.10
2023-03-04T21:31:55.403Z,0.30
2023-03-04T21:34:29.999Z,0.30
2023-03-04T21:36:56.739Z,0.40
2023-03-04T21:39:24.837Z,0.40
2023-03-04T21:41:52.653Z,0.40
2023-03-04T21:44:28.113Z,0.30
2023-03-04T21:46:59.820Z,0.20
2023-03-04T21:49:26.949Z,0.40
2023-03-04T21:51:53.709Z,0.30
2023-03-04T21:54:20.568Z,0.30
2023-03-04T21:56:47.443Z,0.20
2023-03-04T21:59:14.994Z,0.20
2023-03-04T22:01:42.240Z,0.20
2023-03-04T22:04:09.543Z,0.20
2023-03-04T22:06:36.519Z,0.30
2023-03-04T22:09:04.383Z,0.30
2023-03-04T22:11:31.528Z,0.30
2023-03-04T22:14:00.639Z,0.30
2023-03-04T22:16:28.217Z,0.30
2023-03-04T22:18:55.096Z,0.30
2023-03-04T22:21:22.878Z,0.30
2023-03-04T22:23:49.777Z,0.30
2023-03-04T22:26:16.485Z,0.20
2023-03-04T22:28:44.237Z,0.20
2023-03-04T22:31:20.322Z,0.20
2023-03-04T22:33:47.457Z,0.20
2023-03-04T22:36:14.766Z,0.20
2023-03-04T22:38:41.725Z,0.20
2023-03-04T22:41:16.946Z,0.40
2023-03-04T22:43:45.076Z,0.30
2023-03-04T22:46:21.311Z,0.40
2023-03-04T22:48:49.586Z,0.30
2023-03-04T22:51:16.440Z,0.30
2023-03-04T22:53:43.607Z,0.30
2023-03-04T22:56:12.118Z,0.30
2023-03-04T22:58:38.964Z,0.30
2023-03-04T23:01:06.494Z,0.20
2023-03-04T23:03:33.599Z,0.20
2023-03-04T23:06:08.800Z,0.20
2023-03-04T23:08:37.237Z,0.40
2023-03-04T23:11:10.583Z,0.30
2023-03-04T23:13:37.924Z,0.50
2023-03-04T23:16:07.935Z,0.30
2023-03-04T23:18:35.892Z,0.30
2023-03-04T23:21:17.643Z,0.30
2023-03-04T23:23:44.707Z,0.40
2023-03-04T23:26:26.809Z,0.40
2023-03-04T23:28:57.553Z,0.30
2023-03-04T23:31:25.517Z,0.20
2023-03-04T23:33:57.064Z,0.20
2023-03-04T23:36:42.673Z,0.20
2023-03-04T23:39:11.189Z,0.20
2023-03-04T23:41:38.858Z,0.20
2023-03-04T23:44:06.638Z,0.20
2023-03-04T23:46:33.631Z,0.20
2023-03-04T23:49:00.811Z,0.20
2023-03-04T23:51:29.714Z,0.20
2023-03-04T23:53:58.059Z,0.20
2023-03-04T23:56:27.930Z,0.20
2023-03-04T23:58:55.812Z,0.30
